Time;durP1;ratioP1;P1;durP2;ratioP2;P2;SDS_P1;SDS_P2;PMS_P1;PMS_P2;Temp;Humidity;BMP_temperature;BMP_pressure;BME280_temperature;BME280_humidity;BME280_pressure;Samples;Min_cycle;Max_cycle;Signal;HPM_P1;HPM_P2
2022/06/08 00:00:32;;;;;;;7.93;2.83;;;16.70;99.90;;;;;;5064519;28;20059;-76
2022/06/08 00:03:15;;;;;;;11.48;3.90;;;16.70;99.90;;;;;;5055195;28;20829;-75
2022/06/08 00:05:41;;;;;;;11.50;4.63;;;16.70;99.90;;;;;;5073520;28;20480;-75
2022/06/08 00:08:07;;;;;;;14.52;4.40;;;16.70;99.90;;;;;;5073115;28;20055;-75
2022/06/08 00:10:32;;;;;;;13.70;4.35;;;16.70;99.90;;;;;;5055355;28;20028;-76
2022/06/08 00:12:58;;;;;;;14.65;5.30;;;16.70;99.90;;;;;;5073186;28;20062;-75
2022/06/08 00:15:25;;;;;;;15.00;5.50;;;16.70;99.90;;;;;;5073407;28;20020;-76
2022/06/08 00:17:51;;;;;;;17.13;6.15;;;16.70;99.90;;;;;;5073099;28;20024;-76
2022/06/08 00:20:17;;;;;;;14.52;6.57;;;16.70;99.90;;;;;;5074535;28;20056;-76
2022/06/08 00:22:43;;;;;;;16.90;7.50;;;16.60;99.90;;;;;;5076699;28;20396;-76
2022/06/08 00:25:10;;;;;;;19.70;9.48;;;16.60;99.90;;;;;;5072912;28;20036;-76
2022/06/08 00:27:36;;;;;;;18.52;9.70;;;16.60;99.90;;;;;;5053808;28;20034;-75
2022/06/08 00:30:03;;;;;;;21.63;11.02;;;16.60;99.90;;;;;;5072562;28;20465;-76
2022/06/08 00:32:29;;;;;;;27.42;12.48;;;16.60;99.90;;;;;;5064633;28;20035;-76
2022/06/08 00:34:54;;;;;;;26.55;12.43;;;16.60;99.90;;;;;;5066773;28;20021;-76
2022/06/08 00:37:21;;;;;;;21.90;12.57;;;16.60;99.90;;;;;;5067133;28;20021;-76
2022/06/08 00:39:47;;;;;;;24.13;13.23;;;16.60;99.90;;;;;;5072743;28;20021;-75
2022/06/08 00:42:14;;;;;;;24.75;13.82;;;16.60;99.90;;;;;;5072569;28;20036;-76
2022/06/08 00:44:42;;;;;;;24.88;14.23;;;16.50;99.90;;;;;;5072719;28;20016;-76
2022/06/08 00:47:11;;;;;;;25.42;14.50;;;16.50;99.90;;;;;;5072293;28;20033;-75
2022/06/08 00:50:06;;;;;;;27.27;14.70;;;16.50;99.90;;;;;;5072492;28;20057;-75
2022/06/08 00:52:34;;;;;;;26.27;15.97;;;16.50;99.90;;;;;;5071570;28;20524;-76
2022/06/08 00:55:03;;;;;;;27.38;16.35;;;16.40;99.90;;;;;;5072465;28;20040;-75
2022/06/08 00:57:42;;;;;;;31.13;17.42;;;16.40;99.90;;;;;;5072429;28;20036;-75
2022/06/08 01:00:12;;;;;;;28.38;17.15;;;16.40;99.90;;;;;;5042217;28;20033;-75
2022/06/08 01:02:38;;;;;;;27.95;16.90;;;16.40;99.90;;;;;;5072633;28;20083;-75
2022/06/08 01:05:28;;;;;;;28.15;17.25;;;16.40;99.90;;;;;;5072410;28;20024;-75
2022/06/08 01:07:58;;;;;;;33.58;18.48;;;16.40;99.90;;;;;;5072010;28;20028;-75
2022/06/08 01:10:28;;;;;;;33.08;18.35;;;16.40;99.90;;;;;;5072171;28;20048;-75
2022/06/08 01:12:54;;;;;;;29.77;17.90;;;16.40;99.90;;;;;;5072098;28;20063;-75
2022/06/08 01:15:25;;;;;;;28.63;18.60;;;16.40;99.90;;;;;;5072117;28;20040;-76
2022/06/08 01:17:51;;;;;;;28.33;18.48;;;16.40;99.90;;;;;;5071963;28;20104;-76
2022/06/08 01:20:17;;;;;;;29.63;17.65;;;16.40;99.90;;;;;;5072111;28;20048;-75
2022/06/08 01:22:43;;;;;;;29.10;17.63;;;16.40;99.90;;;;;;5071914;28;20025;-76
2022/06/08 01:25:12;;;;;;;27.33;16.88;;;16.40;99.90;;;;;;5071681;28;20137;-75
2022/06/08 01:28:02;;;;;;;27.83;16.38;;;16.40;99.90;;;;;;5071782;28;20028;-75
2022/06/08 01:30:53;;;;;;;25.65;16.52;;;16.40;99.90;;;;;;5071839;28;20107;-75
2022/06/08 01:33:37;;;;;;;26.23;15.52;;;16.30;99.90;;;;;;5050273;28;20044;-76
2022/06/08 01:36:20;;;;;;;27.48;15.35;;;16.30;99.90;;;;;;5071825;28;20039;-75
2022/06/08 01:38:54;;;;;;;23.90;15.63;;;16.30;99.90;;;;;;5071463;28;20020;-76
2022/06/08 01:41:57;;;;;;;24.70;14.90;;;16.30;99.90;;;;;;5071617;28;20032;-75
2022/06/08 01:44:22;;;;;;;26.05;13.98;;;16.20;99.90;;;;;;5070584;28;20025;-75
2022/06/08 01:47:08;;;;;;;25.42;13.75;;;16.20;99.90;;;;;;5071458;28;20491;-76
2022/06/08 01:49:37;;;;;;;23.02;13.43;;;16.20;99.90;;;;;;5070099;28;20067;-76
2022/06/08 01:52:14;;;;;;;21.55;13.35;;;16.10;99.90;;;;;;5070011;28;20750;-76
2022/06/08 01:55:01;;;;;;;23.33;13.25;;;16.10;99.90;;;;;;5070125;28;20044;-75
2022/06/08 01:57:32;;;;;;;22.80;11.85;;;16.10;99.90;;;;;;5071209;28;20081;-75
2022/06/08 02:00:08;;;;;;;21.58;12.52;;;16.10;99.90;;;;;;5060311;28;20041;-76
2022/06/08 02:02:39;;;;;;;;;;;16.00;99.90;;;;;;5053883;28;20029;-76
2022/06/08 02:05:19;;;;;;;16.90;10.45;;;16.00;99.90;;;;;;5069617;28;19957;-76
2022/06/08 02:08:11;;;;;;;16.35;10.32;;;15.90;99.90;;;;;;5053321;28;20028;-75
2022/06/08 02:10:41;;;;;;;18.33;10.63;;;15.90;99.90;;;;;;5066330;28;20043;-76
2022/06/08 02:13:20;;;;;;;18.45;9.60;;;15.90;99.90;;;;;;5071146;28;20024;-75
2022/06/08 02:15:51;;;;;;;15.90;9.82;;;15.90;99.90;;;;;;5071216;28;20423;-75
2022/06/08 02:18:25;;;;;;;17.10;9.55;;;15.90;99.90;;;;;;5071036;28;20040;-75
2022/06/08 02:20:58;;;;;;;16.77;10.40;;;15.80;99.90;;;;;;5071163;28;20121;-75
2022/06/08 02:23:37;;;;;;;17.85;10.57;;;15.80;99.90;;;;;;5071120;28;20496;-75
2022/06/08 02:26:13;;;;;;;16.10;10.07;;;15.80;99.90;;;;;;5071088;28;20376;-75
2022/06/08 02:28:50;;;;;;;15.88;10.60;;;15.80;99.90;;;;;;5066564;28;20029;-75
2022/06/08 02:31:26;;;;;;;17.30;10.35;;;15.80;99.90;;;;;;5053803;28;20044;-75
2022/06/08 02:37:11;;;;;;;17.20;10.35;;;15.80;99.90;;;;;;5064059;28;20086;-75
2022/06/08 02:39:43;;;;;;;16.05;9.98;;;15.80;99.90;;;;;;5065471;28;20490;-75
2022/06/08 02:42:33;;;;;;;17.98;9.27;;;15.80;99.90;;;;;;5055597;28;20029;-76
2022/06/08 02:45:05;;;;;;;15.10;8.60;;;15.90;99.90;;;;;;5068220;28;20688;-75
2022/06/08 02:47:34;;;;;;;11.98;8.18;;;15.90;99.90;;;;;;5056661;28;20024;-75
2022/06/08 02:50:00;;;;;;;11.18;7.63;;;15.90;99.90;;;;;;5071540;28;20115;-75
2022/06/08 02:52:27;;;;;;;16.27;7.70;;;15.80;99.90;;;;;;5067682;28;20364;-75
2022/06/08 02:54:54;;;;;;;9.93;6.30;;;15.80;99.90;;;;;;5067014;28;20117;-76
2022/06/08 02:57:51;;;;;;;12.85;6.97;;;15.80;99.90;;;;;;5060202;28;20495;-75
2022/06/08 03:00:24;;;;;;;12.57;6.50;;;15.90;99.90;;;;;;5056295;28;20045;-76
2022/06/08 03:03:01;;;;;;;10.75;6.32;;;15.80;99.90;;;;;;5066132;28;20040;-75
2022/06/08 03:05:39;;;;;;;8.93;6.25;;;15.90;99.90;;;;;;5072197;28;20635;-76
2022/06/08 03:08:10;;;;;;;9.75;5.85;;;15.90;99.90;;;;;;5074236;28;20024;-75
2022/06/08 03:10:40;;;;;;;9.73;6.03;;;15.90;99.90;;;;;;5074049;28;20510;-75
2022/06/08 03:13:22;;;;;;;13.00;5.57;;;15.90;99.90;;;;;;5074502;28;20480;-75
2022/06/08 03:15:54;;;;;;;9.52;5.30;;;15.90;99.90;;;;;;5072422;28;20852;-75
2022/06/08 03:18:20;;;;;;;10.43;5.72;;;15.90;99.90;;;;;;5073459;28;20016;-76
2022/06/08 03:20:46;;;;;;;12.70;5.65;;;15.90;99.90;;;;;;5071860;28;20484;-75
2022/06/08 03:23:12;;;;;;;12.02;5.10;;;15.90;99.90;;;;;;5053940;28;20032;-76
2022/06/08 03:25:38;;;;;;;10.25;5.55;;;15.90;99.90;;;;;;5071239;28;20096;-76
2022/06/08 03:28:04;;;;;;;10.25;5.57;;;15.90;99.90;;;;;;5049940;28;20120;-75
2022/06/08 03:30:30;;;;;;;9.52;5.40;;;15.90;99.90;;;;;;5065567;28;20045;-75
2022/06/08 03:32:56;;;;;;;8.15;4.50;;;15.90;99.90;;;;;;5042374;28;20032;-75
2022/06/08 03:35:22;;;;;;;10.45;4.82;;;15.90;99.90;;;;;;5060429;28;20017;-76
2022/06/08 03:37:48;;;;;;;9.30;4.57;;;15.90;99.90;;;;;;5072478;28;20108;-76
2022/06/08 03:40:14;;;;;;;8.35;4.43;;;15.90;99.90;;;;;;5071565;28;20021;-75
2022/06/08 03:42:40;;;;;;;8.30;4.57;;;16.00;99.90;;;;;;5055823;28;20020;-75
2022/06/08 03:45:07;;;;;;;9.40;4.05;;;15.90;99.90;;;;;;5069685;28;20139;-75
2022/06/08 03:47:38;;;;;;;10.45;4.57;;;16.00;99.90;;;;;;5073448;28;20591;-75
2022/06/08 03:50:08;;;;;;;10.50;4.35;;;16.00;99.90;;;;;;5055514;28;20376;-76
2022/06/08 03:52:39;;;;;;;6.30;3.55;;;16.00;99.90;;;;;;5073279;28;20432;-76
2022/06/08 03:55:06;;;;;;;9.35;3.90;;;16.00;99.90;;;;;;5067086;28;20024;-76
2022/06/08 03:57:34;;;;;;;7.90;3.95;;;16.00;99.90;;;;;;5055305;28;20035;-75
2022/06/08 04:00:00;;;;;;;10.27;4.25;;;15.90;99.90;;;;;;5071849;28;20111;-76
2022/06/08 04:02:27;;;;;;;7.72;3.80;;;15.90;99.90;;;;;;5051231;28;20112;-75
2022/06/08 04:04:53;;;;;;;8.88;3.58;;;16.00;99.90;;;;;;5066439;28;20028;-75
2022/06/08 04:07:19;;;;;;;7.13;3.50;;;16.00;99.90;;;;;;5072812;28;20033;-75
2022/06/08 04:09:44;;;;;;;10.00;3.70;;;16.00;99.90;;;;;;5067566;28;20476;-76
2022/06/08 04:12:10;;;;;;;7.60;3.25;;;16.00;99.90;;;;;;5069184;28;20096;-75
2022/06/08 04:14:36;;;;;;;6.00;3.28;;;16.00;99.90;;;;;;5056015;28;20104;-76
2022/06/08 04:17:02;;;;;;;9.68;3.17;;;16.00;99.90;;;;;;5070756;28;20031;-76
2022/06/08 04:19:30;;;;;;;8.93;3.22;;;16.00;99.90;;;;;;5070087;28;20108;-76
2022/06/08 04:21:56;;;;;;;6.40;3.08;;;16.00;99.90;;;;;;5072651;28;20020;-76
2022/06/08 04:24:23;;;;;;;8.40;3.38;;;16.00;99.90;;;;;;5071494;28;20066;-76
2022/06/08 04:26:49;;;;;;;5.72;3.00;;;16.00;99.90;;;;;;5059447;28;20032;-75
2022/06/08 04:29:15;;;;;;;6.45;2.88;;;16.10;99.90;;;;;;5054407;28;20024;-76
2022/06/08 04:31:41;;;;;;;6.82;3.35;;;16.10;99.90;;;;;;5058245;28;20420;-76
2022/06/08 04:34:09;;;;;;;5.88;3.08;;;16.10;99.90;;;;;;5069606;28;20035;-76
2022/06/08 04:36:36;;;;;;;4.70;3.20;;;16.10;99.90;;;;;;5070283;28;20078;-76
2022/06/08 04:39:04;;;;;;;5.28;2.83;;;16.10;99.90;;;;;;5054563;28;20031;-76
2022/06/08 04:41:30;;;;;;;5.97;2.80;;;16.20;99.90;;;;;;5058368;28;20620;-76
2022/06/08 04:43:56;;;;;;;7.40;3.20;;;16.20;99.90;;;;;;5065877;28;20021;-75
2022/06/08 04:46:21;;;;;;;7.30;3.10;;;16.20;99.90;;;;;;5067743;28;20024;-76
2022/06/08 04:48:47;;;;;;;9.70;3.35;;;16.20;99.90;;;;;;5071832;28;20039;-75
2022/06/08 04:51:14;;;;;;;7.47;3.50;;;16.20;99.90;;;;;;5071900;28;20024;-76
2022/06/08 04:53:43;;;;;;;9.80;3.28;;;16.30;99.90;;;;;;5071758;28;20036;-77
2022/06/08 04:56:10;;;;;;;6.25;3.13;;;16.30;99.90;;;;;;5052286;28;20025;-76
2022/06/08 04:58:36;;;;;;;6.80;3.00;;;16.40;99.90;;;;;;5071510;28;20417;-76
2022/06/08 05:01:03;;;;;;;8.07;3.15;;;16.40;99.90;;;;;;5072033;28;20031;-75
2022/06/08 05:03:30;;;;;;;4.32;2.80;;;16.40;99.90;;;;;;5066936;28;20111;-75
2022/06/08 05:05:57;;;;;;;6.55;3.08;;;16.40;99.90;;;;;;5068099;28;20035;-76
2022/06/08 05:08:23;;;;;;;9.05;3.50;;;16.50;99.90;;;;;;5064754;28;20049;-75
2022/06/08 05:10:50;;;;;;;7.57;3.45;;;16.50;99.90;;;;;;5071130;28;20066;-75
2022/06/08 05:13:17;;;;;;;5.72;3.00;;;16.50;99.90;;;;;;5053160;28;20103;-75
2022/06/08 05:15:43;;;;;;;5.25;3.60;;;16.50;99.90;;;;;;5071185;28;20020;-75
2022/06/08 05:18:10;;;;;;;7.18;3.70;;;16.50;99.90;;;;;;5063489;28;20040;-75
2022/06/08 05:20:38;;;;;;;4.47;3.63;;;16.60;99.90;;;;;;5072109;28;20377;-77
2022/06/08 05:23:05;;;;;;;9.93;4.30;;;16.60;99.90;;;;;;5068802;28;20029;-75
2022/06/08 05:25:34;;;;;;;6.82;3.45;;;16.60;99.90;;;;;;5071473;28;20025;-74
2022/06/08 05:28:01;;;;;;;6.78;3.80;;;16.60;99.90;;;;;;5070757;28;20456;-75
2022/06/08 05:30:27;;;;;;;6.40;3.75;;;16.70;99.90;;;;;;5070902;28;20473;-75
2022/06/08 05:32:53;;;;;;;9.57;3.72;;;16.70;99.90;;;;;;5071167;28;20056;-74
2022/06/08 05:35:21;;;;;;;7.25;4.07;;;16.70;99.90;;;;;;5069023;28;20029;-74
2022/06/08 05:37:47;;;;;;;8.73;4.20;;;16.80;99.90;;;;;;5070363;28;20024;-75
2022/06/08 05:40:13;;;;;;;5.68;4.15;;;16.80;99.90;;;;;;5070454;28;20381;-75
2022/06/08 05:42:38;;;;;;;7.50;3.47;;;16.80;99.90;;;;;;5071249;28;20644;-75
2022/06/08 05:45:07;;;;;;;6.57;3.92;;;16.90;99.90;;;;;;5071149;28;20028;-75
2022/06/08 05:47:32;;;;;;;8.27;4.07;;;16.90;99.90;;;;;;5071016;28;20027;-75
2022/06/08 05:49:58;;;;;;;7.75;4.22;;;16.90;99.90;;;;;;5070750;28;20029;-75
2022/06/08 05:52:24;;;;;;;6.75;4.40;;;16.90;99.90;;;;;;5070121;28;20365;-75
2022/06/08 05:54:49;;;;;;;8.27;4.20;;;17.00;99.90;;;;;;5069364;28;20043;-75
2022/06/08 05:57:15;;;;;;;10.55;4.00;;;17.00;99.90;;;;;;5068692;28;20467;-75
2022/06/08 05:59:41;;;;;;;7.20;3.75;;;16.90;99.90;;;;;;5068963;28;20020;-75
2022/06/08 06:02:10;;;;;;;9.15;3.80;;;17.00;99.90;;;;;;5049210;28;20043;-75
2022/06/08 06:04:36;;;;;;;6.10;3.70;;;17.00;99.90;;;;;;5068947;28;20032;-75
2022/06/08 06:07:02;;;;;;;7.40;4.30;;;17.00;99.90;;;;;;5067764;28;20537;-75
2022/06/08 06:09:27;;;;;;;7.43;3.80;;;17.00;99.90;;;;;;5068934;28;20540;-75
2022/06/08 06:11:53;;;;;;;5.65;3.75;;;17.10;99.90;;;;;;5064392;28;20086;-75
2022/06/08 06:14:19;;;;;;;9.32;3.80;;;17.10;99.90;;;;;;5069473;28;20027;-75
2022/06/08 06:16:45;;;;;;;12.90;3.80;;;17.20;99.90;;;;;;5058901;28;20068;-75
2022/06/08 06:19:11;;;;;;;7.22;3.58;;;17.20;99.90;;;;;;5068402;28;20063;-75
2022/06/08 06:21:37;;;;;;;8.95;3.67;;;17.30;99.90;;;;;;5069489;28;20031;-76
2022/06/08 06:24:04;;;;;;;6.90;3.50;;;17.40;99.90;;;;;;5069942;28;20016;-75
2022/06/08 06:26:31;;;;;;;6.22;3.10;;;17.40;99.90;;;;;;5073110;28;20100;-76
2022/06/08 06:28:57;;;;;;;7.88;3.10;;;17.50;99.90;;;;;;5073091;28;20434;-75
2022/06/08 06:31:40;;;;;;;7.00;3.05;;;17.60;99.90;;;;;;5072335;28;20021;-75
2022/06/08 06:34:06;;;;;;;6.13;2.88;;;17.70;99.90;;;;;;5072091;28;20047;-75
2022/06/08 06:36:32;;;;;;;7.32;2.85;;;17.80;99.90;;;;;;5069534;28;20487;-75
2022/06/08 06:38:57;;;;;;;5.13;3.08;;;17.80;99.90;;;;;;5071832;28;20028;-76
2022/06/08 06:41:26;;;;;;;5.80;2.67;;;17.80;99.90;;;;;;5073563;28;20507;-75
2022/06/08 06:43:52;;;;;;;5.70;2.85;;;17.80;99.90;;;;;;5055224;28;20024;-75
2022/06/08 06:46:18;;;;;;;8.82;3.20;;;17.90;99.90;;;;;;5073529;28;20024;-75
2022/06/08 06:48:43;;;;;;;7.43;4.07;;;17.90;99.90;;;;;;5073707;28;20028;-75
2022/06/08 06:51:10;;;;;;;8.23;4.03;;;18.00;99.90;;;;;;5073846;28;20139;-75
2022/06/08 06:53:36;;;;;;;7.70;3.88;;;18.00;99.90;;;;;;5072657;28;20043;-75
2022/06/08 06:56:02;;;;;;;8.90;4.20;;;18.00;99.90;;;;;;5072811;28;20024;-75
2022/06/08 06:58:28;;;;;;;9.15;4.78;;;18.00;99.90;;;;;;5073654;28;20028;-76
2022/06/08 07:00:53;;;;;;;13.30;5.28;;;18.10;99.90;;;;;;5073179;28;20029;-75
2022/06/08 07:03:20;;;;;;;8.85;5.55;;;18.10;99.90;;;;;;5054793;28;20024;-76
2022/06/08 07:05:46;;;;;;;10.27;5.47;;;18.20;99.90;;;;;;5073063;28;20066;-75
2022/06/08 07:08:11;;;;;;;14.57;5.20;;;18.20;99.90;;;;;;5062809;28;20024;-75
2022/06/08 07:10:37;;;;;;;11.75;5.53;;;18.30;99.90;;;;;;5072444;28;20416;-75
2022/06/08 07:13:04;;;;;;;10.70;5.35;;;18.40;99.90;;;;;;5073426;28;20039;-75
2022/06/08 07:15:30;;;;;;;11.55;5.50;;;18.50;99.90;;;;;;5066279;28;20492;-76
2022/06/08 07:17:56;;;;;;;10.57;5.75;;;18.50;99.90;;;;;;5072672;28;20064;-75
2022/06/08 07:20:23;;;;;;;7.82;5.25;;;18.70;99.90;;;;;;5071387;28;20127;-75
2022/06/08 07:22:50;;;;;;;10.45;5.18;;;18.70;99.90;;;;;;5072133;28;20027;-75
2022/06/08 07:25:17;;;;;;;7.80;4.90;;;18.80;99.90;;;;;;5075692;28;20086;-75
2022/06/08 07:27:43;;;;;;;9.13;4.50;;;18.90;99.90;;;;;;5065519;28;20389;-75
2022/06/08 07:30:10;;;;;;;9.90;5.32;;;19.00;99.90;;;;;;5071414;28;20525;-75
2022/06/08 07:32:35;;;;;;;11.77;5.80;;;19.00;99.90;;;;;;5071402;28;20032;-75
2022/06/08 07:35:03;;;;;;;8.85;5.30;;;19.10;99.90;;;;;;5070978;28;20387;-75
2022/06/08 07:37:29;;;;;;;9.68;5.53;;;19.10;99.90;;;;;;5066959;28;20044;-75
2022/06/08 07:39:55;;;;;;;10.52;6.03;;;19.20;99.90;;;;;;5071242;28;20029;-75
2022/06/08 07:42:21;;;;;;;10.05;6.28;;;19.20;99.90;;;;;;5071007;28;20430;-75
2022/06/08 07:44:47;;;;;;;13.73;6.80;;;19.30;99.90;;;;;;5071124;28;20123;-75
2022/06/08 07:47:14;;;;;;;10.13;6.93;;;19.30;99.90;;;;;;5053028;28;20380;-75
2022/06/08 07:49:41;;;;;;;13.93;6.88;;;19.30;99.90;;;;;;5074390;28;20145;-76
2022/06/08 07:52:16;;;;;;;11.45;7.00;;;19.30;99.90;;;;;;5071669;28;20056;-75
2022/06/08 07:54:42;;;;;;;10.25;7.35;;;19.30;99.90;;;;;;5071227;28;20035;-76
2022/06/08 07:57:20;;;;;;;10.60;6.68;;;19.30;99.90;;;;;;5071545;28;20040;-75
2022/06/08 07:59:46;;;;;;;13.00;8.65;;;19.40;99.90;;;;;;5068097;28;20028;-75
2022/06/08 08:02:12;;;;;;;14.25;8.90;;;19.50;99.90;;;;;;5071584;28;20047;-75
2022/06/08 08:04:38;;;;;;;16.15;8.77;;;19.60;99.90;;;;;;5070009;28;20387;-75
2022/06/08 08:07:04;;;;;;;16.48;9.35;;;19.70;99.90;;;;;;5067273;28;20229;-75
2022/06/08 08:09:33;;;;;;;14.65;9.05;;;19.80;99.90;;;;;;5070689;28;20021;-75
2022/06/08 08:12:00;;;;;;;16.38;9.10;;;20.00;99.90;;;;;;5071257;28;20372;-75
2022/06/08 08:14:26;;;;;;;13.30;8.70;;;20.20;99.90;;;;;;5071273;28;20013;-75
2022/06/08 08:16:53;;;;;;;13.70;9.00;;;20.40;99.90;;;;;;5051963;28;20024;-75
2022/06/08 08:19:20;;;;;;;11.00;7.88;;;20.40;99.90;;;;;;5031172;28;1086033;-76
2022/06/08 08:21:47;;;;;;;11.35;7.18;;;20.50;99.90;;;;;;5067760;28;20039;-75
2022/06/08 08:24:13;;;;;;;11.18;6.40;;;20.60;99.90;;;;;;5068281;28;20040;-75
2022/06/08 08:26:43;;;;;;;7.85;5.88;;;20.70;99.90;;;;;;5066858;28;20021;-74
2022/06/08 08:29:09;;;;;;;11.70;6.50;;;20.70;99.90;;;;;;5069553;28;20170;-75
2022/06/08 08:31:35;;;;;;;12.90;6.50;;;20.70;99.90;;;;;;5068692;28;20111;-75
2022/06/08 08:34:00;;;;;;;11.55;6.55;;;20.70;99.90;;;;;;5070452;28;20032;-75
2022/06/08 08:36:27;;;;;;;10.60;7.00;;;20.80;99.90;;;;;;5067458;28;20032;-75
2022/06/08 08:38:53;;;;;;;10.38;6.18;;;20.70;99.90;;;;;;5067436;28;20021;-74
2022/06/08 08:44:35;;;;;;;11.45;6.60;;;20.70;99.90;;;;;;5071597;28;20063;-74
2022/06/08 08:47:28;;;;;;;9.73;6.03;;;20.70;99.90;;;;;;5039182;28;20540;-75
2022/06/08 08:49:57;;;;;;;12.85;6.70;;;20.70;99.90;;;;;;5071196;28;20037;-75
2022/06/08 08:52:41;;;;;;;10.63;7.10;;;20.60;99.90;;;;;;5069290;28;20373;-75
2022/06/08 08:55:34;;;;;;;13.00;6.95;;;20.50;99.90;;;;;;5071188;28;20017;-75
2022/06/08 08:58:07;;;;;;;12.18;6.10;;;20.50;99.90;;;;;;5070973;28;20032;-75
2022/06/08 09:00:44;;;;;;;11.48;6.28;;;20.40;99.90;;;;;;5057530;28;20070;-75
2022/06/08 09:03:33;;;;;;;13.85;7.03;;;20.30;99.90;;;;;;5070977;28;20059;-75
2022/06/08 09:06:08;;;;;;;11.70;6.88;;;20.30;99.90;;;;;;5066650;28;20052;-75
2022/06/08 09:08:34;;;;;;;13.50;6.78;;;20.10;99.90;;;;;;5070908;28;20107;-75
2022/06/08 09:11:01;;;;;;;11.10;6.13;;;20.00;99.90;;;;;;5071270;28;20603;-75
2022/06/08 09:13:47;;;;;;;11.30;6.30;;;19.90;99.90;;;;;;5070341;28;20024;-74
2022/06/08 09:16:39;;;;;;;9.35;5.68;;;19.80;99.90;;;;;;5063406;28;20071;-74
2022/06/08 09:19:22;;;;;;;11.30;6.45;;;19.50;99.90;;;;;;5071846;28;20708;-74
2022/06/08 09:21:50;;;;;;;15.57;6.47;;;19.20;99.90;;;;;;5058179;28;20420;-75
2022/06/08 09:24:28;;;;;;;14.43;6.80;;;19.00;99.90;;;;;;5067286;28;20024;-75
2022/06/08 09:27:10;;;;;;;11.70;6.72;;;18.80;99.90;;;;;;5064250;28;20020;-75
2022/06/08 09:29:51;;;;;;;14.25;7.05;;;18.80;99.90;;;;;;5070981;28;20098;-75
2022/06/08 09:32:31;;;;;;;11.48;6.85;;;18.70;99.90;;;;;;5070562;28;20492;-75
2022/06/08 09:35:00;;;;;;;11.57;6.88;;;18.60;99.90;;;;;;5070216;28;20387;-75
2022/06/08 09:37:27;;;;;;;11.85;7.05;;;18.50;99.90;;;;;;5069201;28;20039;-75
2022/06/08 09:39:55;;;;;;;11.70;6.72;;;18.50;99.90;;;;;;5070402;28;20205;-75
2022/06/08 09:42:45;;;;;;;13.50;6.30;;;18.40;99.90;;;;;;5070818;28;20107;-76
2022/06/08 09:45:35;;;;;;;12.85;6.45;;;18.40;99.90;;;;;;5069728;28;20269;-75
2022/06/08 09:54:00;;;;;;;13.70;5.72;;;18.30;99.90;;;;;;5065180;28;20042;-75
2022/06/08 09:56:32;;;;;;;10.20;3.95;;;18.20;99.90;;;;;;5069780;28;20044;-76
2022/06/08 09:59:24;;;;;;;9.57;4.40;;;18.20;99.90;;;;;;5069882;28;20031;-75
2022/06/08 10:02:15;;;;;;;14.18;4.13;;;18.10;99.90;;;;;;5070116;28;20032;-75
2022/06/08 10:05:06;;;;;;;10.80;4.13;;;18.00;99.90;;;;;;5070282;28;20039;-75
2022/06/08 10:07:37;;;;;;;9.52;3.28;;;17.90;99.90;;;;;;5064095;28;20021;-75
2022/06/08 10:10:12;;;;;;;9.18;3.10;;;17.80;99.90;;;;;;5068808;28;20064;-75
2022/06/08 10:12:57;;;;;;;8.90;2.95;;;17.80;99.90;;;;;;5070284;28;20029;-75
2022/06/08 10:15:34;;;;;;;10.77;2.47;;;17.80;99.90;;;;;;5069972;28;20329;-75
2022/06/08 10:18:21;;;;;;;9.35;2.45;;;17.70;99.90;;;;;;5070246;28;20067;-75
2022/06/08 10:21:02;;;;;;;11.30;2.63;;;17.60;99.90;;;;;;5070019;28;20047;-75
2022/06/08 10:23:39;;;;;;;5.28;2.10;;;17.50;99.90;;;;;;5069520;28;20524;-75
2022/06/08 10:26:16;;;;;;;7.88;2.63;;;17.40;99.90;;;;;;5065345;28;20109;-75
2022/06/08 10:28:48;;;;;;;7.05;2.15;;;17.40;99.90;;;;;;5069249;28;20349;-76
2022/06/08 10:31:51;;;;;;;7.13;2.42;;;17.40;99.90;;;;;;5069975;28;20067;-75
2022/06/08 10:34:23;;;;;;;9.38;2.67;;;17.40;99.90;;;;;;5069460;28;20088;-76
2022/06/08 10:36:51;;;;;;;7.10;2.70;;;17.30;99.90;;;;;;5062786;28;20118;-75
2022/06/08 10:39:18;;;;;;;9.20;2.63;;;17.30;99.90;;;;;;5063173;28;20064;-75
2022/06/08 10:44:44;;;;;;;5.72;1.80;;;17.30;99.90;;;;;;5069393;28;20089;-75
2022/06/08 10:47:12;;;;;;;5.93;2.00;;;17.10;99.90;;;;;;5067151;28;20025;-75
2022/06/08 10:49:38;;;;;;;9.00;2.00;;;17.00;99.90;;;;;;5069525;28;20060;-75
2022/06/08 10:52:19;;;;;;;5.57;1.67;;;16.90;99.90;;;;;;5070170;28;20357;-74
2022/06/08 10:54:57;;;;;;;7.82;1.88;;;16.80;99.90;;;;;;5068940;28;20360;-75
2022/06/08 10:57:35;;;;;;;8.35;2.22;;;16.70;99.90;;;;;;5070169;28;20028;-75
2022/06/08 11:00:19;;;;;;;6.05;2.00;;;16.70;99.90;;;;;;5068034;28;20051;-75
2022/06/08 11:02:54;;;;;;;6.43;2.50;;;16.70;99.90;;;;;;5066879;28;20020;-75
2022/06/08 11:05:40;;;;;;;5.95;2.03;;;16.70;99.90;;;;;;5065775;28;20033;-75
2022/06/08 11:08:15;;;;;;;7.43;2.33;;;16.70;99.90;;;;;;5069347;28;20033;-75
2022/06/08 11:10:53;;;;;;;5.57;2.00;;;16.70;99.90;;;;;;5069862;28;20052;-75
2022/06/08 11:13:22;;;;;;;8.07;2.35;;;16.60;99.90;;;;;;5072775;28;20019;-75
2022/06/08 11:16:13;;;;;;;9.27;2.75;;;16.60;99.90;;;;;;5073649;28;20024;-75
2022/06/08 11:19:01;;;;;;;5.18;2.20;;;16.60;99.90;;;;;;5072196;28;20078;-74
2022/06/08 11:21:52;;;;;;;10.88;2.38;;;16.60;99.90;;;;;;5055300;28;20044;-75
2022/06/08 11:24:23;;;;;;;7.47;2.47;;;16.60;99.90;;;;;;5072336;28;20032;-75
2022/06/08 11:26:53;;;;;;;6.70;2.80;;;16.60;99.90;;;;;;5073209;28;20036;-75
2022/06/08 11:29:19;;;;;;;7.97;3.47;;;16.60;99.90;;;;;;5054050;28;20031;-75
2022/06/08 11:31:44;;;;;;;8.13;3.47;;;16.60;99.90;;;;;;5073091;28;20029;-75
2022/06/08 11:34:19;;;;;;;9.30;3.50;;;16.70;99.90;;;;;;5072299;28;20065;-75
2022/06/08 11:36:55;;;;;;;9.40;3.50;;;16.70;99.90;;;;;;5065082;28;20059;-76
2022/06/08 11:39:59;;;;;;;6.05;3.20;;;16.70;99.90;;;;;;5072716;28;20043;-75
2022/06/08 11:42:35;;;;;;;8.85;3.40;;;16.70;99.90;;;;;;5063904;28;20039;-74
2022/06/08 11:45:38;;;;;;;5.47;2.92;;;16.70;99.90;;;;;;5072018;28;20031;-75
2022/06/08 11:48:21;;;;;;;9.35;3.20;;;16.60;99.90;;;;;;5069673;28;20380;-74
2022/06/08 11:50:59;;;;;;;6.93;3.10;;;16.70;99.90;;;;;;5066554;28;20024;-75
2022/06/08 11:53:28;;;;;;;7.07;3.00;;;16.70;99.90;;;;;;5071934;28;20027;-76
2022/06/08 11:56:19;;;;;;;4.55;2.50;;;16.70;99.90;;;;;;5071297;28;20027;-75
2022/06/08 11:58:49;;;;;;;4.53;2.35;;;16.70;99.90;;;;;;5072015;28;20449;-75
2022/06/08 12:01:22;;;;;;;6.22;2.05;;;16.70;99.90;;;;;;5071963;28;20024;-75
2022/06/08 12:03:56;;;;;;;2.67;1.83;;;16.70;99.90;;;;;;5071420;28;20039;-74
2022/06/08 12:06:29;;;;;;;6.78;1.95;;;16.70;99.90;;;;;;5072405;28;20024;-75
2022/06/08 12:09:22;;;;;;;2.55;1.80;;;16.70;99.90;;;;;;5071673;28;20054;-74
2022/06/08 12:11:52;;;;;;;5.22;1.88;;;16.60;99.90;;;;;;5066744;28;20040;-75
2022/06/08 12:14:31;;;;;;;2.30;1.67;;;16.60;99.90;;;;;;5069842;28;20028;-75
2022/06/08 12:16:59;;;;;;;5.03;2.38;;;16.60;99.90;;;;;;5071911;28;20028;-74
2022/06/08 12:19:29;;;;;;;5.30;2.40;;;16.70;99.90;;;;;;5053025;28;20528;-75
2022/06/08 12:22:07;;;;;;;5.47;2.20;;;16.60;99.90;;;;;;5070265;28;20078;-75
2022/06/08 12:24:33;;;;;;;5.97;2.35;;;16.60;99.90;;;;;;5053205;28;20491;-75
2022/06/08 12:27:01;;;;;;;5.97;2.30;;;16.60;99.90;;;;;;5070747;28;20052;-74
2022/06/08 12:29:37;;;;;;;4.57;2.08;;;16.70;99.90;;;;;;5068466;28;20073;-75
2022/06/08 12:32:05;;;;;;;3.40;2.00;;;16.70;99.90;;;;;;5068051;28;20021;-74
2022/06/08 12:34:39;;;;;;;3.40;1.98;;;16.70;99.90;;;;;;5067455;28;20056;-75
2022/06/08 12:37:38;;;;;;;3.97;2.00;;;16.70;99.90;;;;;;5063715;28;20485;-74
2022/06/08 12:40:16;;;;;;;3.80;2.38;;;16.70;99.90;;;;;;5063923;28;20032;-74
2022/06/08 12:42:46;;;;;;;4.43;2.08;;;16.70;99.90;;;;;;5067588;28;20021;-75
2022/06/08 12:45:36;;;;;;;3.45;2.20;;;16.70;99.90;;;;;;5067280;28;20017;-75
2022/06/08 12:48:32;;;;;;;3.72;2.33;;;16.80;99.90;;;;;;5069073;28;20023;-75
2022/06/08 12:50:58;;;;;;;6.07;2.20;;;16.80;99.90;;;;;;5060210;28;20036;-74
2022/06/08 12:53:24;;;;;;;5.07;2.28;;;16.80;99.90;;;;;;5056241;28;20111;-75
2022/06/08 12:55:52;;;;;;;7.97;2.83;;;16.80;99.90;;;;;;5055618;28;20092;-75
2022/06/08 12:58:19;;;;;;;4.45;2.75;;;16.90;99.90;;;;;;5062077;28;20021;-75
2022/06/08 13:00:49;;;;;;;6.72;3.08;;;17.00;99.90;;;;;;5046838;28;20035;-75
2022/06/08 13:03:25;;;;;;;2.97;2.60;;;17.00;99.90;;;;;;5069513;28;20032;-75
2022/06/08 13:05:52;;;;;;;4.90;2.35;;;17.10;99.90;;;;;;5069797;28;20056;-75
2022/06/08 13:08:21;;;;;;;4.47;2.40;;;17.00;99.90;;;;;;5070781;28;20095;-75
2022/06/08 13:10:50;;;;;;;3.55;2.05;;;17.10;99.90;;;;;;5070583;28;20029;-74
2022/06/08 13:13:22;;;;;;;2.85;2.10;;;17.10;99.90;;;;;;5071008;28;20016;-75
2022/06/08 13:15:49;;;;;;;3.28;2.10;;;17.20;99.90;;;;;;5064423;28;20310;-73
2022/06/08 13:18:21;;;;;;;6.60;2.30;;;17.10;99.90;;;;;;5063464;28;20017;-74